Home   Weather   Germany   Eisenach   Past weeks
Flag for Germany

Past Weather in Eisenach, Thuringia, Germany — Yesterday and Last 2 Weeks

Currently: 52 °F. Clear. (Weather station: Erfurt-Bindersleben, Germany). See more current weather

Past Weather in Eisenach — Graph

°F

Eisenach Temperature Yesterday

Maximum temperature yesterday: 64 °F (at 12:20 pm)
Minimum temperature yesterday: 45 °F (at 4:20 am)
Average temperature yesterday: 55 °F

High & Low Weather Summary for the Past Weeks

 TemperatureHumidityPressure
High64 °F (Feb 21, 3:50 pm)100% (Feb 11, 10:50 pm)30.72 "Hg (Feb 11, 10:50 pm)
Low-8 °F (Feb 14, 7:50 am)34% (Feb 21, 4:20 pm)29.83 "Hg (Feb 18, 8:20 pm)
Average36 °F75%30.27 "Hg
* Reported Feb 10 7:20 pm — Feb 25 7:20 pm, Eisenach. Weather by CustomWeather, © 2021

Note: Actual official high and low records may vary slightly from our data, if they occured in-between our weather recording intervals... More about our weather records

Eisenach Weather History for the Previous 24 Hours

Scroll right to see more
 ConditionsComfort  
Time TempWeatherWind HumidityBarometerVisibility
7:20 pm
Thu, Feb 25
54 °FClear.10 mph58%30.33 "Hg10 mi
6:50 pm54 °FClear.9 mph63%30.33 "Hg10 mi
6:20 pm55 °FClear.8 mph59%30.33 "Hg10 mi
5:50 pm57 °FClear.9 mph55%30.33 "Hg10 mi
4:50 pm63 °FSunny.7 mph45%30.30 "Hg10 mi
4:20 pm64 °FSunny.8 mph43%30.30 "Hg10 mi
3:50 pm64 °FPassing clouds.6 mph40%30.30 "HgN/A
3:20 pm64 °FPassing clouds.5 mph43%30.30 "HgN/A
2:50 pm64 °FPassing clouds.7 mph46%30.33 "HgN/A
2:20 pm64 °FSunny.12 mph46%30.33 "Hg10 mi
1:50 pm64 °FPassing clouds.10 mph43%30.33 "HgN/A
1:20 pm64 °FPassing clouds.10 mph37%30.33 "HgN/A
12:50 pm64 °FSunny.13 mph37%30.33 "Hg10 mi
12:20 pm64 °FSunny.12 mph34%30.33 "Hg10 mi
11:50 am63 °FSunny.16 mph37%30.36 "Hg10 mi
11:20 am63 °FSunny.13 mph39%30.33 "Hg10 mi
10:50 am61 °FSunny.9 mph45%30.33 "Hg10 mi
10:20 am59 °FPassing clouds.7 mph48%30.36 "HgN/A
9:50 am57 °FSunny.10 mph55%30.36 "Hg10 mi
9:20 am55 °FPassing clouds.10 mph59%30.36 "HgN/A
8:50 am50 °FSunny.10 mph71%30.36 "Hg10 mi
8:20 am50 °FSunny.12 mph67%30.36 "Hg10 mi
7:50 am50 °FSunny.10 mph67%30.33 "Hg10 mi
7:20 am48 °FSunny.12 mph71%30.33 "Hg10 mi
6:50 am48 °FClear.12 mph71%30.33 "Hg10 mi
6:20 am48 °FClear.12 mph71%30.36 "Hg10 mi
5:50 am48 °FClear.9 mph71%30.36 "Hg10 mi
5:20 am48 °FClear.9 mph71%30.36 "Hg10 mi
4:50 am46 °FClear.9 mph76%30.36 "Hg10 mi
4:20 am50 °FClear.9 mph67%30.36 "Hg10 mi
3:50 am50 °FClear.8 mph67%30.36 "Hg10 mi
3:20 am52 °FClear.10 mph67%30.36 "Hg10 mi
2:50 am48 °FClear.9 mph71%30.36 "Hg10 mi
2:20 am50 °FClear.7 mph67%30.39 "Hg10 mi
1:50 am50 °FClear.7 mph71%30.39 "Hg10 mi
1:20 am50 °FClear.7 mph71%30.39 "Hg10 mi
12:50 am48 °FClear.8 mph76%30.39 "Hg10 mi
12:20 am50 °FClear.9 mph71%30.39 "Hg10 mi
11:50 pm
Wed, Feb 24
50 °FClear.8 mph71%30.39 "Hg10 mi
11:20 pm54 °FClear.8 mph63%30.39 "Hg10 mi
10:50 pm55 °FClear.7 mph63%30.39 "Hg10 mi
10:20 pm55 °FClear.9 mph63%30.39 "Hg10 mi
9:50 pm55 °FClear.10 mph63%30.39 "Hg10 mi
9:20 pm55 °FClear.8 mph63%30.42 "Hg10 mi
Weather by CustomWeather, © 2021

See weather overview